Time;durP1;ratioP1;P1;durP2;ratioP2;P2;SDS_P1;SDS_P2;PMS_P1;PMS_P2;Temp;Humidity;BMP_temperature;BMP_pressure;BME280_temperature;BME280_humidity;BME280_pressure;Samples;Min_cycle;Max_cycle;Signal;HPM_P1;HPM_P2
2023/10/18 00:01:37;;;;;;;;;;;8.90;99.90;;;;;;8428095;28;19924;-69
2023/10/18 00:05:42;;;;;;;;;;;8.90;99.90;;;;;;8408358;28;19978;-69
2023/10/18 00:09:48;;;;;;;;;;;8.80;99.90;;;;;;8415978;28;19924;-68
2023/10/18 00:13:50;;;;;;;;;;;8.80;99.90;;;;;;8417131;28;19924;-69
2023/10/18 00:17:52;;;;;;;;;;;8.80;99.90;;;;;;8420116;28;20310;-68
2023/10/18 00:21:54;;;;;;;;;;;8.80;99.90;;;;;;8433173;28;19931;-69
2023/10/18 00:25:56;;;;;;;;;;;8.80;99.90;;;;;;8415752;28;19932;-68
2023/10/18 00:29:58;;;;;;;;;;;8.80;99.90;;;;;;8428142;28;19924;-68
2023/10/18 00:34:33;;;;;;;;;;;8.80;99.90;;;;;;8426166;28;19945;-69
2023/10/18 00:38:35;;;;;;;;;;;8.90;99.90;;;;;;8422494;28;19924;-69
2023/10/18 00:42:37;;;;;;;;;;;8.90;99.90;;;;;;8408131;28;19924;-68
2023/10/18 00:46:39;;;;;;;;;;;8.90;99.90;;;;;;8412441;28;19977;-68
2023/10/18 00:50:45;;;;;;;;;;;8.80;99.90;;;;;;8428895;28;19924;-68
2023/10/18 00:54:47;;;;;;;;;;;8.90;99.90;;;;;;8403273;28;20387;-68
2023/10/18 00:58:52;;;;;;;;;;;8.80;99.90;;;;;;8413277;28;20025;-69
2023/10/18 01:02:57;;;;;;;;;;;8.80;99.90;;;;;;8428426;28;19924;-68
2023/10/18 01:07:05;;;;;;;;;;;8.80;99.90;;;;;;8412361;28;19924;-69
2023/10/18 01:11:08;;;;;;;;;;;8.80;99.90;;;;;;8408249;28;20338;-69
2023/10/18 01:15:12;;;;;;;;;;;8.80;99.90;;;;;;8420341;28;19925;-68
2023/10/18 01:19:15;;;;;;;;;;;8.70;99.90;;;;;;8428843;28;19924;-68
2023/10/18 01:23:17;;;;;;;;;;;8.80;99.90;;;;;;8425420;28;20373;-69
2023/10/18 01:27:18;;;;;;;;;;;8.70;99.90;;;;;;8405587;28;20328;-69
2023/10/18 01:31:20;;;;;;;;;;;8.70;99.90;;;;;;8426929;28;19924;-68
2023/10/18 01:35:22;;;;;;;;;;;8.70;99.90;;;;;;8396334;28;19924;-69
2023/10/18 01:39:29;;;;;;;;;;;8.70;99.90;;;;;;8422410;28;19924;-69
2023/10/18 01:43:31;;;;;;;;;;;8.70;99.90;;;;;;8396114;28;19928;-69
2023/10/18 01:47:35;;;;;;;;;;;8.60;99.90;;;;;;8395931;28;19967;-69
2023/10/18 01:51:53;;;;;;;;;;;8.60;99.90;;;;;;8410002;28;19967;-68
2023/10/18 01:55:57;;;;;;;;;;;8.50;99.90;;;;;;8425485;28;19931;-68
2023/10/18 01:59:58;;;;;;;;;;;8.50;99.90;;;;;;8404911;28;19932;-69
2023/10/18 02:04:00;;;;;;;;;;;8.50;99.90;;;;;;8415334;28;19967;-69
2023/10/18 02:08:03;;;;;;;;;;;8.50;99.90;;;;;;8422044;28;19924;-68
2023/10/18 02:12:08;;;;;;;;;;;8.50;99.90;;;;;;8410593;28;19935;-69
2023/10/18 02:16:14;;;;;;;;;;;8.50;99.90;;;;;;8426997;28;19924;-69
2023/10/18 02:20:26;;;;;;;;;;;8.40;99.90;;;;;;8420605;28;20378;-69
2023/10/18 02:24:27;;;;;;;;;;;8.40;99.90;;;;;;8413669;28;20387;-68
2023/10/18 02:28:29;;;;;;;;;;;8.40;99.90;;;;;;8400921;28;19924;-68
2023/10/18 02:32:38;;;;;;;;;;;8.40;99.90;;;;;;8398472;28;19924;-69
2023/10/18 02:36:47;;;;;;;;;;;8.30;99.90;;;;;;8401948;28;19924;-68
2023/10/18 02:40:49;;;;;;;;;;;8.30;99.90;;;;;;8423101;28;20372;-69
2023/10/18 02:44:51;;;;;;;;;;;8.30;99.90;;;;;;8412602;28;19978;-68
2023/10/18 02:48:56;;;;;;;;;;;8.20;99.90;;;;;;8405517;28;19999;-68
2023/10/18 02:53:00;;;;;;;;;;;8.20;99.90;;;;;;8412564;28;19972;-68
2023/10/18 02:57:02;;;;;;;;;;;8.10;99.90;;;;;;8422438;28;19924;-68
2023/10/18 03:01:06;;;;;;;;;;;8.10;99.90;;;;;;8423003;28;19924;-69
2023/10/18 03:05:08;;;;;;;;;;;8.10;99.90;;;;;;8412509;28;19939;-68
2023/10/18 03:09:26;;;;;;;;;;;8.10;99.90;;;;;;8413436;28;20379;-68
2023/10/18 03:13:28;;;;;;;;;;;8.10;99.90;;;;;;8420720;28;20387;-68
2023/10/18 03:17:35;;;;;;;;;;;8.10;99.90;;;;;;8402771;28;19978;-68
2023/10/18 03:21:49;;;;;;;;;;;8.10;99.90;;;;;;8422441;28;19932;-68
2023/10/18 03:26:03;;;;;;;;;;;8.20;99.90;;;;;;8420198;28;19989;-68
2023/10/18 03:30:39;;;;;;;;;;;8.20;99.90;;;;;;8415100;28;19932;-69
2023/10/18 03:34:44;;;;;;;;;;;8.20;99.90;;;;;;8397189;28;19924;-68
2023/10/18 03:38:54;;;;;;;;;;;8.20;99.90;;;;;;8423897;28;19971;-68
2023/10/18 03:42:58;;;;;;;;;;;8.20;99.90;;;;;;8424353;28;19970;-68
2023/10/18 03:51:05;;;;;;;;;;;8.10;99.90;;;;;;8428042;28;19933;-68
2023/10/18 03:55:17;;;;;;;;;;;8.00;99.90;;;;;;8411769;28;19951;-68
2023/10/18 03:59:23;;;;;;;;;;;8.00;99.90;;;;;;8423259;28;20318;-68
2023/10/18 04:03:29;;;;;;;;;;;8.00;99.90;;;;;;8423730;28;19931;-68
2023/10/18 04:07:31;;;;;;;;;;;8.00;99.90;;;;;;8426217;28;20387;-68
2023/10/18 04:11:33;;;;;;;;;;;8.00;99.90;;;;;;8411188;28;20325;-69
2023/10/18 04:15:37;;;;;;;;;;;8.00;99.90;;;;;;8414269;28;19924;-69
2023/10/18 04:19:39;;;;;;;;;;;8.00;99.90;;;;;;8426765;28;19977;-68
2023/10/18 04:23:49;;;;;;;;;;;8.10;99.90;;;;;;8401043;28;19963;-68
2023/10/18 04:27:54;;;;;;;;;;;8.10;99.90;;;;;;8426098;28;19928;-68
2023/10/18 04:37:09;;;;;;;;;;;8.10;99.90;;;;;;8417433;28;19946;-68
2023/10/18 04:41:23;;;;;;;;;;;8.10;99.90;;;;;;8409805;28;19924;-69
2023/10/18 04:55:32;;;;;;;;;;;8.10;99.90;;;;;;8403075;28;20099;-68
2023/10/18 04:59:44;;;;;;;;;;;8.10;99.90;;;;;;8407945;28;19924;-68
2023/10/18 05:03:50;;;;;;;;;;;8.10;99.90;;;;;;8407791;28;20038;-69
2023/10/18 05:07:53;;;;;;;;;;;8.10;99.90;;;;;;8395412;28;19966;-69
2023/10/18 05:11:56;;;;;;;;;;;8.10;99.90;;;;;;8408540;28;19960;-68
2023/10/18 05:16:04;;;;;;;;;;;8.10;99.90;;;;;;8415381;28;19932;-68
2023/10/18 05:24:21;;;;;;;;;;;8.10;99.90;;;;;;8398967;28;20416;-69
2023/10/18 05:28:28;;;;;;;;;;;8.10;99.90;;;;;;8429378;28;19924;-69
2023/10/18 05:40:57;;;;;;;;;;;8.00;99.90;;;;;;8426550;28;20002;-69
2023/10/18 05:44:59;;;;;;;;;;;8.00;99.90;;;;;;8397774;28;19931;-69
2023/10/18 05:49:01;;;;;;;;;;;8.00;99.90;;;;;;8398104;28;19924;-68
2023/10/18 05:53:06;;;;;;;;;;;8.00;99.90;;;;;;8400549;28;20398;-69
2023/10/18 05:57:09;;;;;;;;;;;8.00;99.90;;;;;;8414556;28;19924;-69
2023/10/18 06:01:13;;;;;;;;;;;8.00;99.90;;;;;;8399453;28;19924;-68
2023/10/18 06:05:15;;;;;;;;;;;8.00;99.90;;;;;;8392480;28;19924;-68
2023/10/18 06:09:32;;;;;;;;;;;7.90;99.90;;;;;;8393648;28;20046;-68
2023/10/18 06:13:37;;;;;;;;;;;7.90;99.90;;;;;;8394523;28;19938;-69
2023/10/18 06:17:53;;;;;;;;;;;7.80;99.90;;;;;;8400162;28;19970;-69
2023/10/18 06:21:58;;;;;;;;;;;7.80;99.90;;;;;;8372159;28;19928;-69
2023/10/18 06:26:08;;;;;;;;;;;7.80;99.90;;;;;;8406585;28;19924;-68
2023/10/18 06:30:17;;;;;;;;;;;7.70;99.90;;;;;;8394853;28;19928;-69
2023/10/18 06:34:22;;;;;;;;;;;7.70;99.90;;;;;;8405799;28;19931;-68
2023/10/18 06:38:24;;;;;;;;;;;7.70;99.90;;;;;;8401887;28;19935;-68
2023/10/18 06:42:27;;;;;;;;;;;7.70;99.90;;;;;;8389576;28;20023;-68
2023/10/18 06:46:32;;;;;;;;;;;7.70;99.90;;;;;;8390612;28;20074;-68
2023/10/18 06:50:35;;;;;;;;;;;7.70;99.90;;;;;;8391629;28;20030;-68
2023/10/18 06:54:38;;;;;;;;;;;7.70;99.90;;;;;;8399500;28;19925;-69
2023/10/18 07:02:44;;;;;;;;;;;7.80;99.90;;;;;;8395762;28;19967;-69
2023/10/18 07:06:46;;;;;;;;;;;7.80;99.90;;;;;;8401721;28;19924;-68
2023/10/18 07:10:57;;;;;;;;;;;7.80;99.90;;;;;;8398355;28;19924;-68
2023/10/18 07:15:17;;;;;;;;;;;7.90;99.90;;;;;;8394647;28;19954;-68
2023/10/18 07:19:26;;;;;;;;;;;8.00;99.90;;;;;;8400860;28;19928;-68
2023/10/18 07:23:28;;;;;;;;;;;8.00;99.90;;;;;;8415269;28;20421;-68
2023/10/18 07:27:30;;;;;;;;;;;8.00;99.90;;;;;;8408034;28;19924;-68
2023/10/18 07:31:35;;;;;;;;;;;8.10;99.90;;;;;;8404962;28;19924;-69
2023/10/18 07:35:37;;;;;;;;;;;8.10;99.90;;;;;;8409292;28;19925;-69
2023/10/18 07:39:41;;;;;;;;;;;8.20;99.90;;;;;;8374247;28;20327;-68
2023/10/18 07:43:44;;;;;;;;;;;8.20;99.90;;;;;;8407195;28;19966;-69
2023/10/18 07:47:53;;;;;;;;;;;8.20;99.90;;;;;;8408498;28;19925;-69
2023/10/18 07:51:59;;;;;;;;;;;8.30;99.90;;;;;;8379238;28;19970;-69
2023/10/18 07:56:00;;;;;;;;;;;8.30;99.90;;;;;;8380402;28;19924;-69
2023/10/18 08:04:36;;;;;;;;;;;8.50;99.90;;;;;;8392669;28;19924;-68
2023/10/18 08:08:41;;;;;;;;;;;8.60;99.90;;;;;;8413129;28;19932;-68
2023/10/18 08:12:43;;;;;;;;;;;8.70;99.90;;;;;;8392786;28;19932;-69
2023/10/18 08:16:52;;;;;;;;;;;8.80;99.90;;;;;;8416230;28;19959;-69
2023/10/18 08:24:56;;;;;;;;;;;8.90;99.90;;;;;;8409655;28;20272;-68
2023/10/18 08:28:59;;;;;;;;;;;9.00;99.90;;;;;;8398947;28;19924;-69
2023/10/18 08:33:03;;;;;;;;;;;9.10;99.90;;;;;;8396298;28;19925;-68
2023/10/18 08:37:06;;;;;;;;;;;9.20;99.90;;;;;;8400605;28;20448;-68
2023/10/18 08:41:16;;;;;;;;;;;9.40;99.90;;;;;;8396859;28;19924;-69
2023/10/18 08:45:23;;;;;;;;;;;9.60;99.90;;;;;;8404095;28;19931;-69
2023/10/18 08:49:32;;;;;;;;;;;9.80;99.90;;;;;;8410603;28;19933;-68
2023/10/18 08:53:35;;;;;;;;;;;9.90;99.90;;;;;;8385489;28;19928;-68
2023/10/18 08:57:37;;;;;;;;;;;10.10;99.90;;;;;;8383434;28;19967;-69
2023/10/18 09:01:58;;;;;;;;;;;10.20;99.90;;;;;;8410529;28;19963;-68
2023/10/18 09:06:04;;;;;;;;;;;10.40;99.90;;;;;;8406958;28;19924;-69
2023/10/18 09:10:06;;;;;;;;;;;10.50;99.90;;;;;;8396697;28;20375;-68
2023/10/18 09:14:10;;;;;;;;;;;10.60;99.90;;;;;;8422656;28;20167;-69
2023/10/18 09:18:12;;;;;;;;;;;10.80;99.90;;;;;;8396535;28;19924;-69
2023/10/18 09:22:14;;;;;;;;;;;11.00;99.90;;;;;;8397415;28;19936;-69
2023/10/18 09:26:26;;;;;;;;;;;11.10;99.90;;;;;;8388158;28;19928;-69
2023/10/18 09:30:28;;;;;;;;;;;11.20;99.90;;;;;;8386605;28;19928;-68
2023/10/18 09:34:38;;;;;;;;;;;11.40;99.90;;;;;;8393709;28;19967;-68
2023/10/18 09:38:41;;;;;;;;;;;11.50;99.90;;;;;;8392863;28;20360;-68
2023/10/18 09:42:44;;;;;;;;;;;11.50;99.90;;;;;;8390456;28;20422;-69
2023/10/18 09:46:48;;;;;;;;;;;11.50;99.90;;;;;;8385453;28;20393;-68
2023/10/18 09:50:50;;;;;;;;;;;11.50;99.90;;;;;;8399434;28;19946;-68
2023/10/18 09:54:59;;;;;;;;;;;11.50;99.90;;;;;;8365766;28;24187;-68
2023/10/18 09:59:08;;;;;;;;;;;11.50;99.90;;;;;;8383027;28;20331;-69
2023/10/18 10:03:10;;;;;;;;;;;11.60;99.90;;;;;;8382937;28;20367;-68
2023/10/18 10:11:38;;;;;;;;;;;11.90;99.90;;;;;;8386893;28;19982;-69
2023/10/18 10:15:40;;;;;;;;;;;11.90;99.90;;;;;;8384744;28;20555;-69
2023/10/18 10:19:44;;;;;;;;;;;12.00;99.90;;;;;;8390793;28;20015;-68
2023/10/18 10:23:46;;;;;;;;;;;12.00;99.90;;;;;;8379765;28;19978;-70
2023/10/18 10:27:53;;;;;;;;;;;12.00;99.90;;;;;;8400515;28;19935;-68
2023/10/18 10:31:58;;;;;;;;;;;12.10;99.90;;;;;;8382756;28;20342;-69
2023/10/18 10:36:04;;;;;;;;;;;12.20;99.90;;;;;;8386888;28;19935;-69
2023/10/18 10:40:19;;;;;;;;;;;12.30;99.90;;;;;;8393029;28;19935;-69
2023/10/18 10:44:23;;;;;;;;;;;12.40;99.90;;;;;;8386668;28;20376;-69
2023/10/18 10:52:30;;;;;;;;;;;12.80;99.90;;;;;;8390479;28;19934;-70
2023/10/18 10:56:32;;;;;;;;;;;12.80;99.90;;;;;;8371882;28;19924;-69
2023/10/18 11:00:37;;;;;;;;;;;12.80;99.90;;;;;;8387888;28;19928;-68
2023/10/18 11:05:24;;;;;;;;;;;12.90;99.90;;;;;;8387858;28;20026;-70
2023/10/18 11:09:05;;;;;;;;;;;13.00;99.90;;;;;;8379753;28;19924;-69
2023/10/18 11:13:08;;;;;;;;;;;13.00;99.90;;;;;;8371198;28;20471;-68
2023/10/18 11:21:21;;;;;;;;;;;13.30;99.90;;;;;;8384850;28;19924;-69
2023/10/18 11:25:30;;;;;;;;;;;13.40;99.90;;;;;;8387414;28;19952;-69
2023/10/18 11:29:32;;;;;;;;;;;13.50;99.90;;;;;;8391415;28;20376;-69
2023/10/18 11:34:21;;;;;;;;;;;13.60;99.90;;;;;;8393563;28;19932;-68
2023/10/18 11:37:58;;;;;;;;;;;13.70;99.90;;;;;;8380097;28;19928;-69
2023/10/18 11:42:00;;;;;;;;;;;13.80;99.90;;;;;;8389929;28;19966;-70
2023/10/18 11:46:05;;;;;;;;;;;14.00;99.90;;;;;;8393025;28;20407;-68
2023/10/18 11:50:07;;;;;;;;;;;14.20;99.90;;;;;;8390418;28;20380;-69
2023/10/18 11:54:12;;;;;;;;;;;14.20;99.90;;;;;;8393788;28;19931;-70
2023/10/18 11:58:13;;;;;;;;;;;14.20;99.90;;;;;;8395388;28;20325;-69
2023/10/18 12:02:15;;;;;;;;;;;14.10;99.90;;;;;;8397912;28;20027;-69
2023/10/18 12:06:21;;;;;;;;;;;14.10;99.90;;;;;;8394441;28;19964;-68
2023/10/18 12:10:26;;;;;;;;;;;14.10;99.90;;;;;;8398601;28;19928;-70
2023/10/18 12:14:32;;;;;;;;;;;14.10;99.90;;;;;;8394039;28;19928;-69
2023/10/18 12:18:34;;;;;;;;;;;14.10;99.90;;;;;;8393367;28;19935;-69
2023/10/18 12:22:36;;;;;;;;;;;14.20;99.90;;;;;;8394114;28;19933;-69
2023/10/18 12:26:39;;;;;;;;;;;14.20;99.90;;;;;;8405897;28;19931;-69
2023/10/18 12:30:42;;;;;;;;;;;14.30;99.90;;;;;;8392083;28;19951;-68
2023/10/18 12:34:48;;;;;;;;;;;14.30;99.90;;;;;;8389901;28;19929;-69
2023/10/18 12:38:50;;;;;;;;;;;14.30;99.90;;;;;;8387806;28;20668;-69
2023/10/18 12:42:55;;;;;;;;;;;14.30;99.90;;;;;;8386683;28;19944;-69
2023/10/18 12:46:56;;;;;;;;;;;14.30;99.90;;;;;;8383516;28;19955;-68
2023/10/18 12:51:07;;;;;;;;;;;14.30;99.90;;;;;;8392068;28;19993;-69
2023/10/18 12:59:38;;;;;;;;;;;14.30;99.90;;;;;;8389239;28;19930;-69
2023/10/18 13:03:56;;;;;;;;;;;14.30;99.90;;;;;;8404389;28;20306;-69
2023/10/18 13:08:15;;;;;;;;;;;14.30;99.90;;;;;;8388232;28;19928;-67
2023/10/18 13:12:17;;;;;;;;;;;14.40;99.90;;;;;;8387550;28;20946;-69
2023/10/18 13:16:18;;;;;;;;;;;14.40;99.90;;;;;;8386804;28;19928;-69
2023/10/18 13:20:34;;;;;;;;;;;14.50;99.90;;;;;;8385639;28;19928;-68
2023/10/18 13:24:39;;;;;;;;;;;14.50;99.90;;;;;;8389656;28;19944;-69
2023/10/18 13:32:50;;;;;;;;;;;14.60;99.90;;;;;;8383796;28;19924;-69
2023/10/18 13:36:52;;;;;;;;;;;14.70;99.90;;;;;;8368519;28;19982;-69
2023/10/18 13:40:53;;;;;;;;;;;14.70;99.90;;;;;;8387192;28;19932;-69
2023/10/18 13:44:56;;;;;;;;;;;14.70;99.90;;;;;;8385295;28;19935;-68
2023/10/18 13:48:58;;;;;;;;;;;14.70;99.90;;;;;;8384804;28;19928;-68
2023/10/18 13:53:00;;;;;;;;;;;14.70;99.90;;;;;;8371437;28;20357;-69
2023/10/18 13:57:02;;;;;;;;;;;14.70;99.90;;;;;;8385125;28;19928;-68
2023/10/18 14:01:05;;;;;;;;;;;14.70;99.90;;;;;;8386561;28;19928;-69
2023/10/18 14:05:10;;;;;;;;;;;14.70;99.90;;;;;;8386755;28;20387;-69
2023/10/18 14:09:11;;;;;;;;;;;14.60;99.90;;;;;;8368254;28;20372;-68
2023/10/18 14:13:14;;;;;;;;;;;14.60;99.90;;;;;;8381964;28;20383;-69
2023/10/18 14:17:16;;;;;;;;;;;14.60;99.90;;;;;;8386694;28;19929;-68
2023/10/18 14:21:19;;;;;;;;;;;14.50;99.90;;;;;;8383509;28;19932;-68
2023/10/18 14:25:21;;;;;;;;;;;14.40;99.90;;;;;;8380067;28;19974;-69
2023/10/18 14:29:23;;;;;;;;;;;14.40;99.90;;;;;;8407721;28;19959;-69
2023/10/18 14:33:27;;;;;;;;;;;14.40;99.90;;;;;;8391625;28;19931;-69
2023/10/18 14:37:35;;;;;;;;;;;14.40;99.90;;;;;;8403569;28;19924;-69
2023/10/18 14:41:38;;;;;;;;;;;14.30;99.90;;;;;;8389748;28;19924;-68
2023/10/18 14:45:40;;;;;;;;;;;14.30;99.90;;;;;;8386705;28;19929;-68
2023/10/18 14:49:43;;;;;;;;;;;14.30;99.90;;;;;;8388372;28;20295;-69
2023/10/18 14:53:45;;;;;;;;;;;14.30;99.90;;;;;;8386246;28;19935;-69
2023/10/18 14:57:47;;;;;;;;;;;14.20;99.90;;;;;;8386811;28;19932;-69
2023/10/18 15:01:48;;;;;;;;;;;14.20;99.90;;;;;;8388834;28;20359;-69
2023/10/18 15:05:50;;;;;;;;;;;14.10;99.90;;;;;;8391405;28;20303;-70
2023/10/18 15:09:54;;;;;;;;;;;14.10;99.90;;;;;;8395144;28;19931;-69
2023/10/18 15:13:56;;;;;;;;;;;14.00;99.90;;;;;;8392194;28;19925;-69
2023/10/18 15:17:58;;;;;;;;;;;14.00;99.90;;;;;;8398274;28;20435;-68
2023/10/18 15:22:00;;;;;;;;;;;14.00;99.90;;;;;;8386305;28;19956;-69
2023/10/18 15:26:06;;;;;;;;;;;13.90;99.90;;;;;;8376835;28;19925;-69
2023/10/18 15:30:09;;;;;;;;;;;13.80;99.90;;;;;;8395879;28;19931;-69
2023/10/18 15:34:12;;;;;;;;;;;13.80;99.90;;;;;;8390572;28;19971;-69
2023/10/18 15:38:14;;;;;;;;;;;13.80;99.90;;;;;;8388824;28;19987;-69
2023/10/18 15:42:17;;;;;;;;;;;13.70;99.90;;;;;;8392498;28;19931;-68
2023/10/18 15:46:29;;;;;;;;;;;13.60;99.90;;;;;;8385817;28;19933;-68
2023/10/18 15:50:31;;;;;;;;;;;13.60;99.90;;;;;;8392442;28;20666;-69
2023/10/18 15:54:33;;;;;;;;;;;13.50;99.90;;;;;;8389413;28;20284;-69
2023/10/18 15:58:36;;;;;;;;;;;13.50;99.90;;;;;;8388319;28;19969;-69
2023/10/18 16:02:37;;;;;;;;;;;13.50;99.90;;;;;;8390626;28;19935;-69
2023/10/18 16:06:40;;;;;;;;;;;13.50;99.90;;;;;;8388834;28;19928;-69
2023/10/18 16:10:41;;;;;;;;;;;13.50;99.90;;;;;;8387721;28;19972;-69
2023/10/18 16:14:43;;;;;;;;;;;13.40;99.90;;;;;;8389308;28;19932;-69
2023/10/18 16:18:44;;;;;;;;;;;13.40;99.90;;;;;;8388199;28;20305;-69
2023/10/18 16:22:46;;;;;;;;;;;13.40;99.90;;;;;;8388472;28;19943;-69
2023/10/18 16:26:49;;;;;;;;;;;13.40;99.90;;;;;;8391148;28;19924;-69
2023/10/18 16:30:51;;;;;;;;;;;13.40;99.90;;;;;;8388092;28;19962;-68
2023/10/18 16:34:54;;;;;;;;;;;13.30;99.90;;;;;;8389228;28;19929;-69
2023/10/18 16:38:57;;;;;;;;;;;13.30;99.90;;;;;;8388576;28;19950;-69
2023/10/18 16:42:58;;;;;;;;;;;13.30;99.90;;;;;;8373273;28;19925;-69
2023/10/18 16:47:01;;;;;;;;;;;13.30;99.90;;;;;;8390580;28;19928;-68
2023/10/18 16:51:05;;;;;;;;;;;13.30;99.90;;;;;;8388247;28;19987;-69
2023/10/18 16:55:07;;;;;;;;;;;13.20;99.90;;;;;;8389119;28;20303;-69
2023/10/18 16:59:09;;;;;;;;;;;13.20;99.90;;;;;;8386019;28;20375;-69
2023/10/18 17:03:12;;;;;;;;;;;13.20;99.90;;;;;;8372973;28;19972;-69
2023/10/18 17:07:14;;;;;;;;;;;13.20;99.90;;;;;;8385731;28;19924;-69
2023/10/18 17:11:17;;;;;;;;;;;13.20;99.90;;;;;;8389635;28;19957;-69
2023/10/18 17:15:19;;;;;;;;;;;13.20;99.90;;;;;;8401582;28;19967;-69
2023/10/18 17:19:21;;;;;;;;;;;13.20;99.90;;;;;;8386478;28;19966;-70
2023/10/18 17:23:22;;;;;;;;;;;13.20;99.90;;;;;;8388086;28;19928;-69
2023/10/18 17:27:24;;;;;;;;;;;13.10;99.90;;;;;;8389261;28;19952;-69
2023/10/18 17:31:26;;;;;;;;;;;13.10;99.90;;;;;;8389317;28;19975;-69
2023/10/18 17:35:27;;;;;;;;;;;13.10;99.90;;;;;;8384429;28;19932;-70
2023/10/18 17:39:29;;;;;;;;;;;13.10;99.90;;;;;;8385838;28;20331;-69
2023/10/18 17:43:31;;;;;;;;;;;13.10;99.90;;;;;;8387083;28;19924;-69
2023/10/18 17:47:34;;;;;;;;;;;13.10;99.90;;;;;;8382975;28;19936;-69
2023/10/18 17:51:36;;;;;;;;;;;13.10;99.90;;;;;;8383530;28;19964;-69
2023/10/18 17:55:37;;;;;;;;;;;13.10;99.90;;;;;;8384843;28;19924;-69
2023/10/18 17:59:39;;;;;;;;;;;13.00;99.90;;;;;;8367584;28;19966;-69
2023/10/18 18:03:41;;;;;;;;;;;13.10;99.90;;;;;;8387082;28;19986;-69
2023/10/18 18:07:43;;;;;;;;;;;13.10;99.90;;;;;;8388854;28;19932;-69
2023/10/18 18:11:47;;;;;;;;;;;13.10;99.90;;;;;;8387911;28;19932;-69
2023/10/18 18:15:49;;;;;;;;;;;13.10;99.90;;;;;;8383383;28;20157;-69
2023/10/18 18:19:51;;;;;;;;;;;13.00;99.90;;;;;;8388129;28;19978;-69
2023/10/18 18:23:54;;;;;;;;;;;13.00;99.90;;;;;;8384328;28;19929;-69
2023/10/18 18:27:59;;;;;;;;;;;13.00;99.90;;;;;;8384410;28;19928;-68
2023/10/18 18:32:00;;;;;;;;;;;13.00;99.90;;;;;;8385171;28;19939;-69
2023/10/18 18:36:02;;;;;;;;;;;13.00;99.90;;;;;;8389037;28;19932;-69
2023/10/18 18:40:07;;;;;;;;;;;13.00;99.90;;;;;;8388144;28;19928;-68
2023/10/18 18:44:09;;;;;;;;;;;13.00;99.90;;;;;;8386293;28;19928;-68
2023/10/18 18:48:13;;;;;;;;;;;13.00;99.90;;;;;;8384728;28;19928;-69
2023/10/18 18:57:18;;;;;;;;;;;13.00;99.90;;;;;;8381063;28;19924;-69
2023/10/18 19:01:20;;;;;;;;;;;13.00;99.90;;;;;;8384763;28;19924;-68
2023/10/18 19:05:22;;;;;;;;;;;13.00;99.90;;;;;;8385139;28;19932;-68
2023/10/18 19:09:24;;;;;;;;;;;13.00;99.90;;;;;;8385647;28;19975;-68
2023/10/18 19:13:25;;;;;;;;;;;13.00;99.90;;;;;;8385767;28;19933;-69
2023/10/18 19:17:27;;;;;;;;;;;12.90;99.90;;;;;;8369388;28;19931;-69
2023/10/18 19:21:31;;;;;;;;;;;12.90;99.90;;;;;;8399695;28;20391;-69
2023/10/18 19:25:33;;;;;;;;;;;12.90;99.90;;;;;;8383353;28;19924;-69
2023/10/18 19:29:34;;;;;;;;;;;12.90;99.90;;;;;;8348210;28;20319;-69
2023/10/18 19:33:37;;;;;;;;;;;12.90;99.90;;;;;;8351427;28;19978;-68
2023/10/18 19:37:39;;;;;;;;;;;12.90;99.90;;;;;;8353758;28;19925;-69
2023/10/18 19:41:41;;;;;;;;;;;12.80;99.90;;;;;;8352483;28;19925;-68
2023/10/18 19:45:43;;;;;;;;;;;12.80;99.90;;;;;;8356911;28;19936;-69
2023/10/18 19:49:45;;;;;;;;;;;12.70;99.90;;;;;;8357466;28;19935;-69
2023/10/18 19:53:48;;;;;;;;;;;12.60;99.90;;;;;;8357665;28;19928;-68
2023/10/18 19:57:51;;;;;;;;;;;12.60;99.90;;;;;;8355374;28;20327;-69
2023/10/18 20:01:53;;;;;;;;;;;12.40;99.90;;;;;;8355853;28;19928;-68
2023/10/18 20:05:59;;;;;;;;;;;12.40;99.90;;;;;;8358152;28;19925;-69
2023/10/18 20:10:01;;;;;;;;;;;12.30;99.90;;;;;;8355663;28;19951;-68
2023/10/18 20:14:08;;;;;;;;;;;12.20;99.90;;;;;;8389983;28;19954;-69
2023/10/18 20:18:10;;;;;;;;;;;12.20;99.90;;;;;;8368015;28;19929;-69
2023/10/18 20:32:33;;;;;;;;;;;12.00;99.90;;;;;;8358767;28;19981;-69
2023/10/18 20:36:34;;;;;;;;;;;11.80;99.90;;;;;;8388547;28;19924;-69
2023/10/18 20:40:36;;;;;;;;;;;11.70;99.90;;;;;;8372957;28;20015;-69
2023/10/18 20:44:40;;;;;;;;;;;11.70;99.90;;;;;;8388906;28;19968;-69
2023/10/18 20:48:46;;;;;;;;;;;11.70;99.90;;;;;;8387158;28;19970;-68
2023/10/18 20:52:51;;;;;;;;;;;11.60;99.90;;;;;;8375888;28;19940;-68
2023/10/18 20:56:54;;;;;;;;;;;11.60;99.90;;;;;;8392857;28;19970;-69
2023/10/18 21:01:22;;;;;;;;;;;11.50;99.90;;;;;;8392913;28;19924;-68
2023/10/18 21:05:29;;;;;;;;;;;11.50;99.90;;;;;;8425837;28;19968;-69
2023/10/18 21:09:32;;;;;;;;;;;11.50;99.90;;;;;;8399056;28;19932;-69
2023/10/18 21:13:35;;;;;;;;;;;11.50;99.90;;;;;;8398711;28;19935;-69
2023/10/18 21:17:36;;;;;;;;;;;11.50;99.90;;;;;;8394495;28;19924;-69
2023/10/18 21:37:01;;;;;;;;;;;11.40;99.90;;;;;;8394455;28;19979;-69
2023/10/18 21:41:03;;;;;;;;;;;11.40;99.90;;;;;;8390454;28;20003;-69
2023/10/18 21:45:05;;;;;;;;;;;11.30;99.90;;;;;;8385437;28;20279;-69
2023/10/18 21:49:07;;;;;;;;;;;11.40;99.90;;;;;;8386670;28;19925;-68
2023/10/18 21:53:09;;;;;;;;;;;11.40;99.90;;;;;;8382907;28;20714;-68
2023/10/18 21:57:10;;;;;;;;;;;11.30;99.90;;;;;;8386750;28;20285;-68
2023/10/18 22:01:36;;;;;;;;;;;11.30;99.90;;;;;;8390798;28;19924;-69
2023/10/18 22:05:42;;;;;;;;;;;11.30;99.90;;;;;;8386577;28;19924;-69
2023/10/18 22:09:52;;;;;;;;;;;11.20;99.90;;;;;;8381460;28;20003;-69
2023/10/18 22:13:54;;;;;;;;;;;11.20;99.90;;;;;;8378709;28;20321;-69
2023/10/18 22:17:56;;;;;;;;;;;11.10;99.90;;;;;;8388622;28;19925;-69
2023/10/18 22:22:02;;;;;;;;;;;11.00;99.90;;;;;;8380160;28;19931;-69
2023/10/18 22:26:05;;;;;;;;;;;11.00;99.90;;;;;;8386804;28;19928;-69
2023/10/18 22:30:25;;;;;;;;;;;11.00;99.90;;;;;;8389294;28;20306;-69
2023/10/18 22:34:29;;;;;;;;;;;11.00;99.90;;;;;;8393418;28;19924;-69
2023/10/18 22:38:32;;;;;;;;;;;11.00;99.90;;;;;;8407657;28;19924;-69
2023/10/18 22:42:40;;;;;;;;;;;11.00;99.90;;;;;;8400468;28;19928;-69
2023/10/18 22:51:44;;;;;;;;;;;11.10;99.90;;;;;;8425278;28;19919;-69
2023/10/18 22:55:46;;;;;;;;;;;11.10;99.90;;;;;;8410513;28;19925;-69
2023/10/18 22:59:48;;;;;;;;;;;11.10;99.90;;;;;;8423648;28;19944;-69
2023/10/18 23:03:51;;;;;;;;;;;11.10;99.90;;;;;;8401995;28;19932;-68
2023/10/18 23:07:53;;;;;;;;;;;11.10;99.90;;;;;;8413214;28;19977;-69
2023/10/18 23:11:58;;;;;;;;;;;11.10;99.90;;;;;;8408430;28;19931;-69
2023/10/18 23:16:01;;;;;;;;;;;11.20;99.90;;;;;;8420377;28;20398;-69
2023/10/18 23:20:18;;;;;;;;;;;11.20;99.90;;;;;;8421269;28;19928;-69
2023/10/18 23:28:32;;;;;;;;;;;11.20;99.90;;;;;;8426783;28;19931;-70
2023/10/18 23:41:20;;;;;;;;;;;11.30;99.90;;;;;;8425276;28;20015;-69
2023/10/18 23:45:25;;;;;;;;;;;11.40;99.90;;;;;;8425072;28;20310;-70
2023/10/18 23:49:28;;;;;;;;;;;11.40;99.90;;;;;;8431478;28;19931;-70
